Time;durP1;ratioP1;P1;durP2;ratioP2;P2;SDS_P1;SDS_P2;PMS_P1;PMS_P2;Temp;Humidity;BMP_temperature;BMP_pressure;BME280_temperature;BME280_humidity;BME280_pressure;Samples;Min_cycle;Max_cycle;Signal;HPM_P1;HPM_P2
2021/07/17 00:00:58;;;;;;;5.30;3.70;;;19.60;99.90;;;;;;5091544;28;20825;-70
2021/07/17 00:03:25;;;;;;;5.90;4.13;;;19.60;99.90;;;;;;5092203;28;20665;-70
2021/07/17 00:05:52;;;;;;;3.53;3.22;;;19.60;99.90;;;;;;5091893;28;20209;-69
2021/07/17 00:08:19;;;;;;;3.88;3.30;;;19.50;99.90;;;;;;5092633;28;20611;-70
2021/07/17 00:10:48;;;;;;;5.43;4.07;;;19.50;99.90;;;;;;5091317;28;20665;-69
2021/07/17 00:13:15;;;;;;;3.38;3.17;;;19.50;99.90;;;;;;5091823;28;20730;-68
2021/07/17 00:15:44;;;;;;;4.10;3.58;;;19.50;99.90;;;;;;5091452;28;20205;-68
2021/07/17 00:18:15;;;;;;;3.95;3.30;;;19.50;99.90;;;;;;5091671;28;20201;-69
2021/07/17 00:20:42;;;;;;;5.70;3.95;;;19.50;99.90;;;;;;5091810;28;20229;-69
2021/07/17 00:23:09;;;;;;;3.45;3.17;;;19.50;99.90;;;;;;5091901;28;20259;-70
2021/07/17 00:25:36;;;;;;;3.53;3.22;;;19.50;99.90;;;;;;5091392;28;20208;-69
2021/07/17 00:28:03;;;;;;;5.00;3.72;;;19.50;99.90;;;;;;5091973;28;20209;-69
2021/07/17 00:30:30;;;;;;;5.13;3.78;;;19.40;99.90;;;;;;5091378;28;20205;-69
2021/07/17 00:32:58;;;;;;;3.40;3.00;;;19.40;99.90;;;;;;5091215;28;20262;-69
2021/07/17 00:35:25;;;;;;;4.97;4.30;;;19.40;99.90;;;;;;5091627;28;20251;-69
2021/07/17 00:37:52;;;;;;;4.68;4.28;;;19.30;99.90;;;;;;5091284;28;20262;-69
2021/07/17 00:40:20;;;;;;;4.75;3.75;;;19.30;99.90;;;;;;5091018;28;20209;-69
2021/07/17 00:42:48;;;;;;;4.10;3.70;;;19.30;99.90;;;;;;5063815;28;20289;-69
2021/07/17 00:45:17;;;;;;;3.95;3.65;;;19.20;99.90;;;;;;5091661;28;20288;-69
2021/07/17 00:47:44;;;;;;;4.40;3.90;;;19.20;99.90;;;;;;5090690;28;20201;-69
2021/07/17 00:50:14;;;;;;;5.20;4.07;;;19.30;99.90;;;;;;5090372;28;20665;-69
2021/07/17 00:52:42;;;;;;;3.83;3.53;;;19.30;99.90;;;;;;5090264;28;20627;-69
2021/07/17 00:55:10;;;;;;;6.38;3.90;;;19.20;99.90;;;;;;5091517;28;20282;-70
2021/07/17 00:57:39;;;;;;;4.50;3.72;;;19.20;99.90;;;;;;5090862;28;20262;-69
2021/07/17 01:00:08;;;;;;;4.00;3.60;;;19.10;99.90;;;;;;5091321;28;20202;-70
2021/07/17 01:02:38;;;;;;;3.08;2.88;;;19.10;99.90;;;;;;5091040;28;20229;-69
2021/07/17 01:05:07;;;;;;;6.05;3.53;;;19.00;99.90;;;;;;5091293;28;20730;-69
2021/07/17 01:07:36;;;;;;;5.38;4.32;;;19.10;99.90;;;;;;5091175;28;20266;-69
2021/07/17 01:10:04;;;;;;;5.63;3.95;;;19.00;99.90;;;;;;5091519;28;20202;-69
2021/07/17 01:12:31;;;;;;;4.00;3.70;;;18.90;99.90;;;;;;5091510;28;20216;-70
2021/07/17 01:14:58;;;;;;;5.45;3.63;;;19.00;99.90;;;;;;5090508;28;20243;-70
2021/07/17 01:17:26;;;;;;;4.80;4.40;;;18.90;99.90;;;;;;5090883;28;20292;-70
2021/07/17 01:19:53;;;;;;;4.45;3.55;;;18.90;99.90;;;;;;5090496;28;20205;-69
2021/07/17 01:22:21;;;;;;;3.35;3.00;;;18.80;99.90;;;;;;5090405;28;20298;-70
2021/07/17 01:24:48;;;;;;;3.97;3.63;;;18.80;99.90;;;;;;5090618;28;20225;-69
2021/07/17 01:27:17;;;;;;;3.75;3.45;;;18.90;99.90;;;;;;5090575;28;20197;-68
2021/07/17 01:29:45;;;;;;;4.32;3.92;;;18.90;99.90;;;;;;5090496;28;20597;-69
2021/07/17 01:32:12;;;;;;;4.50;3.60;;;18.80;99.90;;;;;;5090416;28;20250;-68
2021/07/17 01:34:39;;;;;;;4.50;3.58;;;18.80;99.90;;;;;;5090354;28;20673;-69
2021/07/17 01:37:06;;;;;;;4.43;3.53;;;18.80;99.90;;;;;;5090379;28;20205;-68
2021/07/17 01:39:34;;;;;;;4.22;3.92;;;18.70;99.90;;;;;;5090836;28;20627;-69
2021/07/17 01:42:01;;;;;;;5.70;3.63;;;18.60;99.90;;;;;;5090766;28;20267;-68
2021/07/17 01:44:28;;;;;;;4.72;4.32;;;18.50;99.90;;;;;;5062514;28;20217;-68
2021/07/17 01:46:55;;;;;;;4.40;4.00;;;18.40;99.90;;;;;;5090261;28;20685;-68
2021/07/17 01:49:22;;;;;;;4.88;4.35;;;18.40;99.90;;;;;;5090199;28;20661;-67
2021/07/17 01:51:49;;;;;;;6.47;3.85;;;18.40;99.90;;;;;;5089931;28;20627;-68
2021/07/17 01:54:16;;;;;;;7.95;4.30;;;18.30;99.90;;;;;;5090271;28;20220;-68
2021/07/17 01:56:44;;;;;;;4.85;3.72;;;18.20;99.90;;;;;;5090259;28;20205;-68
2021/07/17 01:59:12;;;;;;;5.20;3.72;;;18.20;99.90;;;;;;5090101;28;20729;-68
2021/07/17 02:01:39;;;;;;;4.35;3.92;;;18.20;99.90;;;;;;5091533;28;20233;-68
2021/07/17 02:04:06;;;;;;;4.60;4.20;;;18.30;99.90;;;;;;5094710;28;20254;-68
2021/07/17 02:06:33;;;;;;;5.47;4.28;;;18.20;99.90;;;;;;5094599;28;20209;-69
2021/07/17 02:09:00;;;;;;;5.10;4.18;;;18.20;99.90;;;;;;5094268;28;20205;-69
2021/07/17 02:11:27;;;;;;;5.05;4.35;;;18.10;99.90;;;;;;5094254;28;20212;-69
2021/07/17 02:13:55;;;;;;;6.55;4.20;;;18.00;99.90;;;;;;5094269;28;20205;-69
2021/07/17 02:16:23;;;;;;;8.35;4.72;;;18.00;99.90;;;;;;5094197;28;20209;-69
2021/07/17 02:18:50;;;;;;;4.82;4.35;;;18.00;99.90;;;;;;5093837;28;20207;-69
2021/07/17 02:21:20;;;;;;;5.75;4.45;;;18.00;99.90;;;;;;5094014;28;20286;-69
2021/07/17 02:23:47;;;;;;;5.03;4.63;;;17.90;99.90;;;;;;5094184;28;20284;-69
2021/07/17 02:26:15;;;;;;;5.00;4.60;;;18.00;99.90;;;;;;5093927;28;20636;-69
2021/07/17 02:28:42;;;;;;;4.70;4.30;;;18.00;99.90;;;;;;5093674;28;20616;-69
2021/07/17 02:31:10;;;;;;;5.18;4.78;;;18.00;99.90;;;;;;5094350;28;20218;-69
2021/07/17 02:33:38;;;;;;;4.97;4.57;;;18.00;99.90;;;;;;5093626;28;20201;-69
2021/07/17 02:36:06;;;;;;;4.28;3.88;;;18.10;99.90;;;;;;5094028;28;20247;-69
2021/07/17 02:38:33;;;;;;;6.82;4.47;;;18.20;99.90;;;;;;5094238;28;20266;-68
2021/07/17 02:41:00;;;;;;;4.65;4.25;;;18.20;99.90;;;;;;5082906;28;20254;-69
2021/07/17 02:43:27;;;;;;;4.88;4.38;;;18.20;99.90;;;;;;5093588;28;20209;-69
2021/07/17 02:45:53;;;;;;;4.75;4.35;;;18.20;99.90;;;;;;5093075;28;20673;-70
2021/07/17 02:48:22;;;;;;;6.82;4.55;;;18.20;99.90;;;;;;5093498;28;20261;-70
2021/07/17 02:50:49;;;;;;;4.60;4.20;;;18.20;99.90;;;;;;5092967;28;20235;-70
2021/07/17 02:53:16;;;;;;;4.43;3.88;;;18.20;99.90;;;;;;5093471;28;20258;-70
2021/07/17 02:55:43;;;;;;;5.32;4.57;;;18.10;99.90;;;;;;5093520;28;20205;-68
2021/07/17 02:58:10;;;;;;;5.60;4.82;;;18.00;99.90;;;;;;5093354;28;20270;-69
2021/07/17 03:00:37;;;;;;;4.65;4.25;;;17.90;99.90;;;;;;5093311;28;20202;-69
2021/07/17 03:03:11;;;;;;;5.10;4.57;;;17.90;99.90;;;;;;5093598;28;20236;-69
2021/07/17 03:05:40;;;;;;;5.00;4.60;;;17.90;99.90;;;;;;5064946;28;20209;-70
2021/07/17 03:08:08;;;;;;;4.57;4.20;;;17.90;99.90;;;;;;5093345;28;20206;-68
2021/07/17 03:10:35;;;;;;;4.93;4.50;;;17.80;99.90;;;;;;5093252;28;20661;-69
2021/07/17 03:13:02;;;;;;;8.48;5.68;;;17.70;99.90;;;;;;5092562;28;20673;-70
2021/07/17 03:15:29;;;;;;;6.22;4.55;;;17.70;99.90;;;;;;5092823;28;20421;-68
2021/07/17 03:17:56;;;;;;;9.30;4.82;;;17.70;99.90;;;;;;5092796;28;20258;-69
2021/07/17 03:20:23;;;;;;;6.10;5.50;;;17.60;99.90;;;;;;5092874;28;20235;-69
2021/07/17 03:22:52;;;;;;;4.50;4.10;;;17.60;99.90;;;;;;5092909;28;20279;-70
2021/07/17 03:25:19;;;;;;;4.95;4.55;;;17.50;99.90;;;;;;5092966;28;20630;-70
2021/07/17 03:27:46;;;;;;;4.65;4.22;;;17.60;99.90;;;;;;5092508;28;20201;-70
2021/07/17 03:30:14;;;;;;;6.38;4.85;;;17.50;99.90;;;;;;5093093;28;20209;-69
2021/07/17 03:32:41;;;;;;;4.55;4.15;;;17.60;99.90;;;;;;5091926;28;20567;-69
2021/07/17 03:35:09;;;;;;;6.40;5.25;;;17.60;99.90;;;;;;5093094;28;20209;-69
2021/07/17 03:37:37;;;;;;;5.43;4.38;;;17.70;99.90;;;;;;5092179;28;20209;-70
2021/07/17 03:40:09;;;;;;;5.28;4.88;;;17.70;99.90;;;;;;5093345;28;20205;-70
2021/07/17 03:42:36;;;;;;;5.55;5.05;;;17.60;99.90;;;;;;5092290;28;20232;-68
2021/07/17 03:45:04;;;;;;;5.15;4.70;;;17.60;99.90;;;;;;5093179;28;20616;-70
2021/07/17 03:47:31;;;;;;;6.63;4.55;;;17.50;99.90;;;;;;5092129;28;20665;-68
2021/07/17 03:49:58;;;;;;;5.32;4.82;;;17.50;99.90;;;;;;5092256;28;20205;-68
2021/07/17 03:52:25;;;;;;;8.85;5.85;;;17.50;99.90;;;;;;5092343;28;20681;-69
2021/07/17 03:54:52;;;;;;;7.57;6.07;;;17.50;99.90;;;;;;5091885;28;20266;-67
2021/07/17 03:57:20;;;;;;;5.25;4.85;;;17.40;99.90;;;;;;5092331;28;20202;-69
2021/07/17 03:59:47;;;;;;;6.13;5.55;;;17.40;99.90;;;;;;5091836;28;20205;-68
2021/07/17 04:02:14;;;;;;;4.93;4.47;;;17.30;99.90;;;;;;5092343;28;20275;-69
2021/07/17 04:04:42;;;;;;;6.43;5.05;;;17.30;99.90;;;;;;5091725;28;20205;-66
2021/07/17 04:07:10;;;;;;;5.38;4.88;;;17.30;99.90;;;;;;5092400;28;20648;-68
2021/07/17 04:09:37;;;;;;;7.97;4.97;;;17.20;99.90;;;;;;5091987;28;20255;-67
2021/07/17 04:12:04;;;;;;;5.78;5.18;;;17.30;99.90;;;;;;5092321;28;20198;-68
2021/07/17 04:14:33;;;;;;;7.00;5.70;;;17.40;99.90;;;;;;5092326;28;20259;-68
2021/07/17 04:17:00;;;;;;;5.28;4.78;;;17.20;99.90;;;;;;5091386;28;20270;-67
2021/07/17 04:19:27;;;;;;;5.53;5.03;;;17.30;99.90;;;;;;5091998;28;20668;-68
2021/07/17 04:21:54;;;;;;;5.50;5.00;;;17.20;99.90;;;;;;5091124;28;20711;-69
2021/07/17 04:24:21;;;;;;;5.45;4.95;;;17.20;99.90;;;;;;5091750;28;20258;-69
2021/07/17 04:26:47;;;;;;;5.05;4.65;;;17.30;99.90;;;;;;5091229;28;20266;-69
2021/07/17 04:29:14;;;;;;;5.45;4.65;;;17.40;99.90;;;;;;5092016;28;20245;-68
2021/07/17 04:31:43;;;;;;;5.93;4.85;;;17.30;99.90;;;;;;5091315;28;20279;-68
2021/07/17 04:34:10;;;;;;;5.05;4.57;;;17.30;99.90;;;;;;5091314;28;20205;-68
2021/07/17 04:36:37;;;;;;;5.57;5.03;;;17.20;99.90;;;;;;5091539;28;20209;-68
2021/07/17 04:39:04;;;;;;;6.72;4.43;;;17.20;99.90;;;;;;5091603;28;20255;-68
2021/07/17 04:41:31;;;;;;;4.22;3.92;;;17.20;99.90;;;;;;5091909;28;20205;-68
2021/07/17 04:43:58;;;;;;;5.90;5.30;;;17.20;99.90;;;;;;5091227;28;20218;-69
2021/07/17 04:46:25;;;;;;;7.18;5.65;;;17.10;99.90;;;;;;5091636;28;20270;-69
2021/07/17 04:48:53;;;;;;;5.40;4.72;;;17.10;99.90;;;;;;5091161;28;20262;-68
2021/07/17 04:51:20;;;;;;;5.45;4.95;;;17.10;99.90;;;;;;5090995;28;20255;-68
2021/07/17 04:53:47;;;;;;;5.35;4.72;;;17.10;99.90;;;;;;5090923;28;20217;-69
2021/07/17 04:56:14;;;;;;;6.57;4.72;;;17.10;99.90;;;;;;5090647;28;20636;-69
2021/07/17 04:58:41;;;;;;;4.80;4.40;;;17.20;99.90;;;;;;5090883;28;20274;-69
2021/07/17 05:01:08;;;;;;;4.78;4.25;;;17.30;99.90;;;;;;5090765;28;20285;-68
2021/07/17 05:03:36;;;;;;;4.72;4.32;;;17.30;99.90;;;;;;5091220;28;20306;-69
2021/07/17 05:06:04;;;;;;;5.43;4.97;;;17.30;99.90;;;;;;5091379;28;20292;-68
2021/07/17 05:08:31;;;;;;;5.05;4.50;;;17.30;99.90;;;;;;5091000;28;20202;-68
2021/07/17 05:10:59;;;;;;;5.43;4.93;;;17.20;99.90;;;;;;5090434;28;20625;-69
2021/07/17 05:13:26;;;;;;;5.35;4.85;;;17.30;99.90;;;;;;5090985;28;20270;-70
2021/07/17 05:15:53;;;;;;;5.82;5.30;;;17.30;99.90;;;;;;5090351;28;20209;-69
2021/07/17 05:18:21;;;;;;;5.72;4.20;;;17.20;99.90;;;;;;5090903;28;20232;-69
2021/07/17 05:20:49;;;;;;;5.05;4.65;;;17.30;99.90;;;;;;5090747;28;20206;-68
2021/07/17 05:23:17;;;;;;;5.07;4.68;;;17.40;99.90;;;;;;5090785;28;20282;-68
2021/07/17 05:25:46;;;;;;;6.05;4.32;;;17.40;99.90;;;;;;5090403;28;20206;-68
2021/07/17 05:28:13;;;;;;;6.32;4.38;;;17.40;99.90;;;;;;5090849;28;20205;-68
2021/07/17 05:30:40;;;;;;;4.97;4.40;;;17.40;99.90;;;;;;5090307;28;20201;-68
2021/07/17 05:33:07;;;;;;;6.07;5.00;;;17.50;99.90;;;;;;5090753;28;20205;-68
2021/07/17 05:35:34;;;;;;;6.07;5.57;;;17.50;99.90;;;;;;5090625;28;20201;-68
2021/07/17 05:38:01;;;;;;;5.55;5.05;;;17.50;99.90;;;;;;5090495;28;20221;-70
2021/07/17 05:40:30;;;;;;;5.20;4.80;;;17.60;99.90;;;;;;5090543;28;20213;-68
2021/07/17 05:42:57;;;;;;;4.78;4.38;;;17.60;99.90;;;;;;5089570;28;20237;-68
2021/07/17 05:45:24;;;;;;;8.38;5.18;;;17.60;99.90;;;;;;5075440;28;20206;-68
2021/07/17 05:47:51;;;;;;;5.32;4.82;;;17.70;99.90;;;;;;5078162;28;20214;-69
2021/07/17 05:50:19;;;;;;;4.82;4.32;;;17.70;99.90;;;;;;5081340;28;20256;-68
2021/07/17 05:52:47;;;;;;;5.75;5.25;;;17.70;99.90;;;;;;5075821;28;20255;-69
2021/07/17 05:55:14;;;;;;;6.30;5.70;;;17.70;99.90;;;;;;5073974;28;20625;-68
2021/07/17 05:57:43;;;;;;;6.68;6.15;;;17.80;99.90;;;;;;5081263;28;20702;-69
2021/07/17 06:00:11;;;;;;;8.30;7.63;;;17.80;99.90;;;;;;5079210;28;20205;-69
2021/07/17 06:02:39;;;;;;;6.95;6.15;;;17.80;99.90;;;;;;5080253;28;20278;-69
2021/07/17 06:05:07;;;;;;;7.72;6.85;;;17.90;99.90;;;;;;5084103;28;20217;-69
2021/07/17 06:07:34;;;;;;;9.40;6.97;;;17.90;99.90;;;;;;5079442;28;20669;-69
2021/07/17 06:10:01;;;;;;;13.73;6.00;;;18.00;99.90;;;;;;5075943;28;20731;-68
2021/07/17 06:12:28;;;;;;;5.85;5.35;;;18.00;99.90;;;;;;5080688;28;20636;-69
2021/07/17 06:14:56;;;;;;;6.13;5.57;;;18.10;99.90;;;;;;5078467;28;20743;-68
2021/07/17 06:17:23;;;;;;;5.00;4.15;;;18.20;99.90;;;;;;5082916;28;20206;-68
2021/07/17 06:19:50;;;;;;;6.30;4.38;;;18.30;99.90;;;;;;5078605;28;20210;-69
2021/07/17 06:22:17;;;;;;;5.40;4.93;;;18.30;99.90;;;;;;5075877;28;20564;-68
2021/07/17 06:24:44;;;;;;;9.57;4.60;;;18.40;99.90;;;;;;5083985;28;20275;-68
2021/07/17 06:27:11;;;;;;;4.60;4.20;;;18.40;99.90;;;;;;5072024;28;20243;-69
2021/07/17 06:29:38;;;;;;;5.57;4.40;;;18.50;99.90;;;;;;5069684;28;20252;-68
2021/07/17 06:32:07;;;;;;;5.00;4.50;;;18.60;99.90;;;;;;5069869;28;20264;-68
2021/07/17 06:34:35;;;;;;;5.38;4.97;;;18.70;99.90;;;;;;5069795;28;20271;-70
2021/07/17 06:37:02;;;;;;;4.88;4.47;;;18.70;99.90;;;;;;5070504;28;20214;-69
2021/07/17 06:39:29;;;;;;;4.75;4.15;;;18.70;99.90;;;;;;5069544;28;20627;-67
2021/07/17 06:41:56;;;;;;;5.47;4.97;;;18.70;99.90;;;;;;5069540;28;20207;-69
2021/07/17 06:44:23;;;;;;;5.25;4.45;;;18.80;99.90;;;;;;5069039;28;20234;-68
2021/07/17 06:46:50;;;;;;;5.32;4.93;;;19.00;99.90;;;;;;5069417;28;20206;-68
2021/07/17 06:49:18;;;;;;;4.53;4.13;;;19.00;99.90;;;;;;5085619;28;20213;-70
2021/07/17 06:51:45;;;;;;;5.03;4.53;;;19.10;99.90;;;;;;5069762;28;20198;-70
2021/07/17 06:54:12;;;;;;;5.05;4.65;;;19.20;99.90;;;;;;5086170;28;20634;-70
2021/07/17 06:56:39;;;;;;;4.20;3.85;;;19.30;99.90;;;;;;5085381;28;20621;-71
2021/07/17 06:59:06;;;;;;;5.07;4.07;;;19.40;99.90;;;;;;5088647;28;20206;-68
2021/07/17 07:01:33;;;;;;;4.15;3.85;;;19.40;99.90;;;;;;5074869;28;20232;-70
2021/07/17 07:04:00;;;;;;;3.90;3.60;;;19.40;99.90;;;;;;5072434;28;20678;-71
2021/07/17 07:06:29;;;;;;;4.70;3.65;;;19.50;99.90;;;;;;5072990;28;20210;-68
2021/07/17 07:08:56;;;;;;;3.95;3.55;;;19.60;99.90;;;;;;5072609;28;20278;-69
2021/07/17 07:11:22;;;;;;;4.15;3.75;;;19.70;99.90;;;;;;5075251;28;20206;-71
2021/07/17 07:13:49;;;;;;;4.63;4.20;;;19.80;99.90;;;;;;5073150;28;20625;-69
2021/07/17 07:16:16;;;;;;;3.95;3.65;;;19.90;99.90;;;;;;5073125;28;20206;-77
2021/07/17 07:18:43;;;;;;;4.95;3.58;;;20.00;99.90;;;;;;5072399;28;20656;-70
2021/07/17 07:21:10;;;;;;;4.43;4.03;;;20.10;99.90;;;;;;5072851;28;20636;-78
2021/07/17 07:23:40;;;;;;;3.53;3.22;;;20.10;99.90;;;;;;5072203;28;20222;-78
2021/07/17 07:26:07;;;;;;;4.20;3.72;;;20.10;99.90;;;;;;5072318;28;20256;-79
2021/07/17 07:28:34;;;;;;;4.18;3.88;;;20.20;99.90;;;;;;5072824;28;20202;-79
2021/07/17 07:31:01;;;;;;;4.25;3.85;;;20.30;99.90;;;;;;5073096;28;20289;-79
2021/07/17 07:33:28;;;;;;;3.63;3.33;;;20.40;99.90;;;;;;5072272;28;20631;-78
2021/07/17 07:35:55;;;;;;;4.45;3.92;;;20.60;99.90;;;;;;5072375;28;20620;-76
2021/07/17 07:38:22;;;;;;;3.20;3.00;;;20.60;99.90;;;;;;5072428;28;20632;-77
2021/07/17 07:40:50;;;;;;;3.90;3.60;;;20.50;99.90;;;;;;5071410;28;20214;-78
2021/07/17 07:43:17;;;;;;;4.38;3.53;;;20.60;99.90;;;;;;5072641;28;20238;-78
2021/07/17 07:45:44;;;;;;;4.43;3.58;;;20.80;99.90;;;;;;5071186;28;20628;-73
2021/07/17 07:48:11;;;;;;;3.75;2.78;;;20.90;99.90;;;;;;5077052;28;20673;-71
2021/07/17 07:50:38;;;;;;;4.90;3.47;;;21.00;99.90;;;;;;5074199;28;20221;-70
2021/07/17 07:53:05;;;;;;;3.92;3.03;;;21.10;99.90;;;;;;5083171;28;20205;-73
2021/07/17 07:55:32;;;;;;;3.15;2.95;;;21.30;99.90;;;;;;5092814;28;20213;-76
2021/07/17 07:58:01;;;;;;;3.78;3.38;;;21.30;99.90;;;;;;5092174;28;20209;-70
2021/07/17 08:00:28;;;;;;;3.60;3.30;;;21.40;99.90;;;;;;5081075;28;20266;-67
2021/07/17 08:02:55;;;;;;;3.17;2.97;;;21.70;99.90;;;;;;5073605;28;20325;-75
2021/07/17 08:05:22;;;;;;;3.70;3.30;;;21.80;99.90;;;;;;5072564;28;20264;-72
2021/07/17 08:07:49;;;;;;;3.05;2.67;;;21.90;99.90;;;;;;5071889;28;20256;-78
2021/07/17 08:10:16;;;;;;;4.97;3.53;;;22.00;99.90;;;;;;5072459;28;20633;-72
2021/07/17 08:12:43;;;;;;;4.07;3.78;;;22.40;99.90;;;;;;5071287;28;20625;-75
2021/07/17 08:15:12;;;;;;;3.50;3.25;;;22.60;99.90;;;;;;5073494;28;20256;-79
2021/07/17 08:17:39;;;;;;;3.00;2.80;;;23.30;99.90;;;;;;5071134;28;20210;-71
2021/07/17 08:20:09;;;;;;;2.60;2.40;;;23.80;99.90;;;;;;5071617;28;20218;-70
2021/07/17 08:22:36;;;;;;;3.15;2.95;;;23.60;99.90;;;;;;5070633;28;20297;-69
2021/07/17 08:25:04;;;;;;;2.80;2.60;;;23.30;99.90;;;;;;5071872;28;20230;-68
2021/07/17 08:27:31;;;;;;;4.40;2.53;;;23.40;99.90;;;;;;5071861;28;20202;-86
2021/07/17 08:29:58;;;;;;;2.58;2.38;;;23.00;99.90;;;;;;5071086;28;20673;-69
2021/07/17 08:32:27;;;;;;;3.13;2.80;;;23.00;99.90;;;;;;5071224;28;20632;-69
2021/07/17 08:34:54;;;;;;;3.30;3.08;;;22.80;99.90;;;;;;5070788;28;20215;-69
2021/07/17 08:37:21;;;;;;;3.53;3.22;;;23.20;99.90;;;;;;5070702;28;20264;-70
2021/07/17 08:39:48;;;;;;;3.30;3.03;;;23.20;99.90;;;;;;5069734;28;20199;-72
2021/07/17 08:42:17;;;;;;;3.42;3.13;;;23.10;99.90;;;;;;5071391;28;20202;-70
2021/07/17 08:44:47;;;;;;;2.95;2.67;;;23.40;99.90;;;;;;5070791;28;20234;-76
2021/07/17 08:47:16;;;;;;;3.58;2.90;;;24.50;99.90;;;;;;5070950;28;20636;-73
2021/07/17 08:49:45;;;;;;;3.33;3.10;;;24.60;99.90;;;;;;5088441;28;20270;-75
2021/07/17 08:52:12;;;;;;;3.33;2.55;;;24.70;99.90;;;;;;5085359;28;20661;-74
2021/07/17 08:54:41;;;;;;;2.90;2.70;;;25.00;99.90;;;;;;5070729;28;20205;-71
2021/07/17 08:57:11;;;;;;;2.65;2.45;;;25.50;99.90;;;;;;5070926;28;20209;-70
2021/07/17 08:59:38;;;;;;;2.97;2.78;;;25.60;99.90;;;;;;5070443;28;20210;-69
2021/07/17 09:02:06;;;;;;;2.83;2.50;;;25.00;99.90;;;;;;5071141;28;20202;-70
2021/07/17 09:04:33;;;;;;;2.72;2.53;;;25.20;99.90;;;;;;5070989;28;20717;-69
2021/07/17 09:07:01;;;;;;;2.72;2.53;;;25.90;99.90;;;;;;5070195;28;20202;-69
2021/07/17 09:09:31;;;;;;;3.00;2.00;;;25.60;99.90;;;;;;5070941;28;20259;-75
2021/07/17 09:11:58;;;;;;;2.63;2.42;;;24.80;99.90;;;;;;5069546;28;20207;-69
2021/07/17 09:14:44;;;;;;;2.78;2.50;;;24.80;99.90;;;;;;5070432;28;20260;-69
2021/07/17 09:17:11;;;;;;;2.95;2.38;;;24.90;99.90;;;;;;5070502;28;20695;-69
2021/07/17 09:19:53;;;;;;;2.80;2.58;;;24.90;99.90;;;;;;5070324;28;20670;-71
2021/07/17 09:22:36;;;;;;;2.78;2.55;;;24.80;99.90;;;;;;5070417;28;20280;-69
2021/07/17 09:25:08;;;;;;;36.72;8.95;;;24.80;99.90;;;;;;5070648;28;20238;-70
2021/07/17 09:27:35;;;;;;;2.85;2.65;;;25.00;99.90;;;;;;5070692;28;20746;-74
2021/07/17 09:30:02;;;;;;;3.03;2.83;;;25.10;99.90;;;;;;5071023;28;20255;-69
2021/07/17 09:32:29;;;;;;;2.90;2.70;;;25.20;99.90;;;;;;5070142;28;20213;-75
2021/07/17 09:35:09;;;;;;;3.03;2.80;;;25.30;99.90;;;;;;5069148;28;20236;-70
2021/07/17 09:37:37;;;;;;;3.60;3.35;;;25.40;99.90;;;;;;5070417;28;20620;-72
2021/07/17 09:40:11;;;;;;;3.40;3.20;;;25.60;99.90;;;;;;5062842;28;20255;-70
2021/07/17 09:42:44;;;;;;;4.32;3.72;;;25.70;99.90;;;;;;5069895;28;20661;-74
2021/07/17 09:45:11;;;;;;;3.47;3.25;;;26.30;99.90;;;;;;5070368;28;20236;-75
2021/07/17 09:47:38;;;;;;;3.75;3.30;;;26.50;99.90;;;;;;5069813;28;20665;-75
2021/07/17 09:50:13;;;;;;;3.20;3.00;;;27.00;99.90;;;;;;5090574;28;20205;-73
2021/07/17 09:52:43;;;;;;;3.42;3.22;;;27.40;99.90;;;;;;5090307;28;20251;-75
2021/07/17 09:55:12;;;;;;;2.65;2.45;;;27.30;99.90;;;;;;5090902;28;20209;-71
2021/07/17 09:57:40;;;;;;;2.90;2.70;;;28.80;99.90;;;;;;5090490;28;20205;-71
2021/07/17 10:00:09;;;;;;;3.25;3.05;;;30.60;99.90;;;;;;5090400;28;20201;-72
2021/07/17 10:02:39;;;;;;;2.80;2.60;;;34.10;99.90;;;;;;5089911;28;20212;-70
2021/07/17 10:05:07;;;;;;;2.70;2.50;;;36.80;99.90;;;;;;5090278;28;20228;-76
2021/07/17 10:07:34;;;;;;;3.28;2.90;;;37.80;99.90;;;;;;5090371;28;20212;-75
2021/07/17 10:10:03;;;;;;;2.40;2.30;;;38.10;99.90;;;;;;5068874;28;20240;-74
2021/07/17 10:12:34;;;;;;;3.17;2.80;;;37.60;99.90;;;;;;5070177;28;20664;-75
2021/07/17 10:15:02;;;;;;;3.00;2.80;;;37.40;99.90;;;;;;5069965;28;20205;-70
2021/07/17 10:17:36;;;;;;;3.97;3.67;;;38.50;99.90;;;;;;5070361;28;20292;-70
2021/07/17 10:20:04;;;;;;;2.80;2.60;;;37.60;99.90;;;;;;5069993;28;20255;-73
2021/07/17 10:22:32;;;;;;;3.10;2.75;;;39.20;99.90;;;;;;5071265;28;20259;-72
2021/07/17 10:24:59;;;;;;;2.40;2.30;;;40.80;99.90;;;;;;5073326;28;20282;-70
2021/07/17 10:27:27;;;;;;;2.20;2.10;;;38.40;99.90;;;;;;5073538;28;20270;-70
2021/07/17 10:29:54;;;;;;;2.75;2.55;;;36.70;99.90;;;;;;5073567;28;20205;-71
2021/07/17 10:32:22;;;;;;;3.10;2.90;;;38.40;99.90;;;;;;5073578;28;20244;-70
2021/07/17 10:34:50;;;;;;;3.67;3.38;;;39.50;99.90;;;;;;5073214;28;20292;-69
2021/07/17 10:37:20;;;;;;;3.05;2.53;;;39.90;99.90;;;;;;5073738;28;20205;-68
2021/07/17 10:40:02;;;;;;;3.00;2.80;;;36.30;99.90;;;;;;5073426;28;20209;-72
2021/07/17 10:42:31;;;;;;;3.83;3.33;;;33.50;99.90;;;;;;5073520;28;20205;-69
2021/07/17 10:44:59;;;;;;;3.50;3.20;;;29.80;99.90;;;;;;5073206;28;20291;-72
2021/07/17 10:47:37;;;;;;;2.90;2.72;;;27.90;99.90;;;;;;5073314;28;20330;-73
2021/07/17 10:50:06;;;;;;;3.05;2.85;;;26.90;99.90;;;;;;5066199;28;20197;-72
2021/07/17 10:52:37;;;;;;;3.17;2.97;;;26.30;99.90;;;;;;5094003;28;20200;-71
2021/07/17 10:55:27;;;;;;;3.47;3.17;;;26.50;99.90;;;;;;5093668;28;20209;-69
2021/07/17 10:57:59;;;;;;;3.28;2.97;;;27.30;99.90;;;;;;5092976;28;20673;-71
2021/07/17 11:00:46;;;;;;;3.33;3.13;;;27.40;99.90;;;;;;5093715;28;20210;-70
2021/07/17 11:03:21;;;;;;;3.47;3.28;;;27.20;99.90;;;;;;5093270;28;20214;-70
2021/07/17 11:05:50;;;;;;;4.60;3.08;;;27.60;99.90;;;;;;5091480;28;20722;-69
2021/07/17 11:08:30;;;;;;;2.83;2.63;;;27.30;99.90;;;;;;5077432;28;20203;-73
2021/07/17 11:10:57;;;;;;;3.10;2.90;;;27.20;99.90;;;;;;5093188;28;20237;-73
2021/07/17 11:13:34;;;;;;;3.42;2.70;;;27.50;99.90;;;;;;5090317;28;20213;-70
2021/07/17 11:16:02;;;;;;;3.60;2.92;;;28.00;99.90;;;;;;5090497;28;20209;-74
2021/07/17 11:18:40;;;;;;;3.35;3.10;;;28.10;99.90;;;;;;5093224;28;20205;-74
2021/07/17 11:21:10;;;;;;;2.22;2.13;;;28.60;99.90;;;;;;5093357;28;20250;-73
2021/07/17 11:23:43;;;;;;;6.57;3.60;;;28.60;99.90;;;;;;5092416;28;20205;-73
2021/07/17 11:26:16;;;;;;;2.67;2.47;;;27.70;99.90;;;;;;5092921;28;20625;-76
2021/07/17 11:28:57;;;;;;;6.35;5.95;;;27.20;99.90;;;;;;5092765;28;20252;-70
2021/07/17 11:31:47;;;;;;;4.28;3.97;;;26.90;99.90;;;;;;5092992;28;20624;-73
2021/07/17 11:34:32;;;;;;;2.80;2.60;;;27.00;99.90;;;;;;5092263;28;20680;-73
2021/07/17 11:37:02;;;;;;;3.10;2.83;;;27.30;99.90;;;;;;5092614;28;20232;-73
2021/07/17 11:39:30;;;;;;;2.88;2.60;;;27.20;99.90;;;;;;5093270;28;20205;-73
2021/07/17 11:41:58;;;;;;;2.65;2.45;;;27.00;99.90;;;;;;5092704;28;20206;-73
2021/07/17 11:44:28;;;;;;;3.05;2.85;;;27.00;99.90;;;;;;5092465;28;20229;-70
2021/07/17 11:46:57;;;;;;;2.72;2.53;;;27.00;99.90;;;;;;5092372;28;20263;-72
2021/07/17 11:49:28;;;;;;;2.70;2.50;;;26.90;99.90;;;;;;5077884;28;20205;-72
2021/07/17 11:51:56;;;;;;;2.85;2.63;;;26.90;99.90;;;;;;5082982;28;20206;-70
2021/07/17 11:54:25;;;;;;;3.20;3.00;;;27.10;99.90;;;;;;5074541;28;20202;-69
2021/07/17 11:57:05;;;;;;;2.90;2.63;;;27.30;99.90;;;;;;5085563;28;20206;-71
2021/07/17 11:59:35;;;;;;;2.67;2.47;;;27.40;99.90;;;;;;5068660;28;20206;-74
2021/07/17 12:02:05;;;;;;;3.17;2.97;;;27.30;99.90;;;;;;5072317;28;20252;-73
2021/07/17 12:04:33;;;;;;;3.47;3.22;;;27.00;99.90;;;;;;5072538;28;20246;-74
2021/07/17 12:07:04;;;;;;;4.70;3.13;;;26.80;99.90;;;;;;5071345;28;20225;-73
2021/07/17 12:09:35;;;;;;;3.35;2.97;;;26.90;99.90;;;;;;5071560;28;20206;-73
2021/07/17 12:12:23;;;;;;;3.13;2.40;;;27.00;99.90;;;;;;5070944;28;20662;-74
2021/07/17 12:14:58;;;;;;;2.90;2.70;;;27.40;99.90;;;;;;5071522;28;20217;-74
2021/07/17 12:17:26;;;;;;;3.70;3.05;;;27.70;99.90;;;;;;5065869;28;20205;-74
2021/07/17 12:20:01;;;;;;;3.35;3.15;;;28.00;99.90;;;;;;5071150;28;20556;-73
2021/07/17 12:22:28;;;;;;;3.17;2.97;;;28.10;99.90;;;;;;5065654;28;20206;-71
2021/07/17 12:25:11;;;;;;;3.78;3.47;;;27.80;99.90;;;;;;5071064;28;20229;-72
2021/07/17 12:28:03;;;;;;;2.85;2.65;;;28.00;99.90;;;;;;5064893;28;20237;-73
2021/07/17 12:30:33;;;;;;;2.80;2.50;;;27.60;99.90;;;;;;5071074;28;20648;-74
2021/07/17 12:33:11;;;;;;;2.70;2.50;;;27.50;99.90;;;;;;5071249;28;20259;-74
2021/07/17 12:35:38;;;;;;;2.85;2.65;;;27.70;99.90;;;;;;5070487;28;20206;-73
2021/07/17 12:38:18;;;;;;;2.67;2.47;;;27.70;99.90;;;;;;5071573;28;20210;-74
2021/07/17 12:40:58;;;;;;;2.75;2.55;;;27.90;99.90;;;;;;5070869;28;20203;-72
2021/07/17 12:43:27;;;;;;;2.83;2.63;;;27.90;99.90;;;;;;5070947;28;20793;-73
2021/07/17 12:46:01;;;;;;;3.05;2.85;;;27.90;99.90;;;;;;5069605;28;20237;-73
2021/07/17 12:48:29;;;;;;;2.90;2.70;;;27.80;99.90;;;;;;5078389;28;20200;-75
2021/07/17 12:51:07;;;;;;;3.15;2.28;;;27.90;99.90;;;;;;5091086;28;20653;-74
2021/07/17 12:53:34;;;;;;;2.55;2.38;;;27.80;99.90;;;;;;5065421;28;20621;-73
2021/07/17 12:56:02;;;;;;;2.58;2.17;;;27.90;99.90;;;;;;5086381;28;20205;-74